Forks, WA

1:40 PM PST on February 21, 2017 (GMT -0800)
MFKSWA | | Change Station
Active Advisory: Small Craft Advisory

Elev 311 ft 47.97 °N, 124.40 °W | Updated 2 seconds ago

Partly Cloudy
Partly Cloudy
45.0 °F
Feels Like 42 °F
N
5.0
Wind Variable Wind from NNW

Today
High -- | Low -- °F
--% Chance of Precip.
Yesterday
High -- | Low -- °F
Precip. -- in
Pressure 29.98 in
Visibility 10.0 miles
Clouds Mostly Cloudy 3300 ft
Windchill 42 °F
Dew Point 35 °F
Humidity 66%
Rainfall 0.08 in
Snow Depth Not available.
7:12 AM 5:50 PM
Waning Crescent, 22% visible
METAR KUIL 212053Z AUTO 34014G20KT 10SM BKN033 08/01 A2998 RMK AO2 SLP152 T00830006 51025
Pressure 29.98 in
Visibility 10.0 miles
Clouds Mostly Cloudy 3300 ft
Windchill 42 °F
Dew Point 35 °F
Humidity 66%
Rainfall 0.08 in
Snow Depth Not available.
7:12 AM 5:50 PM
Waning Crescent, 22% visible
METAR KUIL 212053Z AUTO 34014G20KT 10SM BKN033 08/01 A2998 RMK AO2 SLP152 T00830006 51025

Get Your Daily Forecast Email!

Thanks for signing up!

Be on the lookout for a verification email in your inbox.

You'll start receiving the daily forecast at 8 AM.

×

10-Day Weather Forecast

Almanac

Astronomy

Feb. 21, 2017 Rise Set
Actual Time
Civil Twilight
Nautical Twilight
Astronomical Twilight
Moon
Length of Visible Light
Length of Day
Tomorrow will be .
, % of the Moon is Illuminated

Today's Extremes

State Highs State Lows

Community

WunderPhotos

Upload Photos

1,962,540 photos uploaded!

WunderBlog® & News

Nearby

Air Quality

  Air Quality AQ Index Pollutant
Not available.

Snow Depth

Station Depth Elevation

Earthquake Activity

City Distance Mag. Time & Date
Minimum magnitude displayed is 2.5.

Coastal Water Temperatures

Place Temperature

Stations

Nearby Weather Stations

Station Location Temp. Windchill Dew Point Humidity Wind Precip. Elev Updated Type
                   

Watches & Warnings

Small Craft Advisory
Issued: 9:59 AM PST Feb. 21, 2017 – National Weather Service

... Small Craft Advisory in effect until 6 PM PST this evening...

The National Weather Service in Seattle has issued a Small Craft
Advisory... which is in effect until 6 PM PST this evening.

* Winds... northerly 15 to 25 knots.

* Waves... 6 to 8 feet in westerly swells.

Precautionary/preparedness actions...

A Small Craft Advisory means that wind speeds of 21 to 33 knots
are expected to produce hazardous wave conditions to small craft.
Inexperienced mariners... especially those operating smaller
vessels should avoid navigating in these conditions.